sensor_id;sensor_type;location;lat;lon;timestamp;pressure;altitude;pressure_sealevel;temperature;humidity
54308;BME280;40208;39.778;2.710;2022-10-23T00:02:29;101446.44;;;18.69;100.00
54308;BME280;40208;39.778;2.710;2022-10-23T00:05:14;101388.00;;;18.45;100.00
54308;BME280;40208;39.778;2.710;2022-10-23T00:07:59;101450.59;;;18.60;100.00
54308;BME280;40208;39.778;2.710;2022-10-23T00:10:44;101450.72;;;18.58;100.00
54308;BME280;40208;39.778;2.710;2022-10-23T00:13:29;101441.38;;;18.64;100.00
54308;BME280;40208;39.778;2.710;2022-10-23T00:16:14;101424.47;;;18.49;100.00
54308;BME280;40208;39.778;2.710;2022-10-23T00:18:59;101452.13;;;18.51;100.00
54308;BME280;40208;39.778;2.710;2022-10-23T00:21:44;101437.47;;;18.55;100.00
54308;BME280;40208;39.778;2.710;2022-10-23T00:24:29;101388.00;;;18.32;100.00
54308;BME280;40208;39.778;2.710;2022-10-23T00:27:14;101424.78;;;18.57;100.00
54308;BME280;40208;39.778;2.710;2022-10-23T00:29:59;101423.31;;;18.66;100.00
54308;BME280;40208;39.778;2.710;2022-10-23T00:32:44;101413.50;;;18.52;100.00
54308;BME280;40208;39.778;2.710;2022-10-23T00:35:29;101424.16;;;18.67;100.00
54308;BME280;40208;39.778;2.710;2022-10-23T00:38:14;101420.84;;;18.76;100.00
54308;BME280;40208;39.778;2.710;2022-10-23T00:41:00;101411.50;;;18.81;100.00
54308;BME280;40208;39.778;2.710;2022-10-23T00:44:02;101402.38;;;18.97;100.00
54308;BME280;40208;39.778;2.710;2022-10-23T00:46:48;101403.13;;;18.99;100.00
54308;BME280;40208;39.778;2.710;2022-10-23T00:49:32;101396.34;;;19.06;100.00
54308;BME280;40208;39.778;2.710;2022-10-23T00:52:18;101385.25;;;19.11;100.00
54308;BME280;40208;39.778;2.710;2022-10-23T00:55:04;101394.28;;;19.10;100.00
54308;BME280;40208;39.778;2.710;2022-10-23T00:57:50;101389.09;;;19.19;100.00
54308;BME280;40208;39.778;2.710;2022-10-23T01:00:45;101383.09;;;19.16;100.00
54308;BME280;40208;39.778;2.710;2022-10-23T01:03:30;101389.22;;;19.18;100.00
54308;BME280;40208;39.778;2.710;2022-10-23T01:06:37;101374.28;;;19.14;100.00
54308;BME280;40208;39.778;2.710;2022-10-23T01:12:49;101382.66;;;19.09;100.00
54308;BME280;40208;39.778;2.710;2022-10-23T01:15:58;101391.28;;;19.01;100.00
54308;BME280;40208;39.778;2.710;2022-10-23T01:19:02;101386.34;;;18.95;100.00
54308;BME280;40208;39.778;2.710;2022-10-23T01:25:55;101389.16;;;18.94;100.00
54308;BME280;40208;39.778;2.710;2022-10-23T01:28:55;101390.53;;;18.99;100.00
54308;BME280;40208;39.778;2.710;2022-10-23T01:31:55;101409.78;;;18.93;100.00
54308;BME280;40208;39.778;2.710;2022-10-23T01:34:59;101395.38;;;18.94;100.00
54308;BME280;40208;39.778;2.710;2022-10-23T01:38:04;101406.47;;;18.90;100.00
54308;BME280;40208;39.778;2.710;2022-10-23T01:40:58;101396.88;;;18.85;100.00
54308;BME280;40208;39.778;2.710;2022-10-23T01:44:15;101389.47;;;18.76;100.00
54308;BME280;40208;39.778;2.710;2022-10-23T01:47:04;101373.75;;;18.70;100.00
54308;BME280;40208;39.778;2.710;2022-10-23T01:49:51;101379.22;;;18.81;100.00
54308;BME280;40208;39.778;2.710;2022-10-23T01:52:37;101383.44;;;18.98;100.00
54308;BME280;40208;39.778;2.710;2022-10-23T01:55:22;101384.94;;;19.15;100.00
54308;BME280;40208;39.778;2.710;2022-10-23T01:58:09;101377.47;;;19.19;100.00
54308;BME280;40208;39.778;2.710;2022-10-23T02:00:57;101360.44;;;19.31;100.00
54308;BME280;40208;39.778;2.710;2022-10-23T02:03:43;101375.16;;;19.51;100.00
54308;BME280;40208;39.778;2.710;2022-10-23T02:06:29;101344.44;;;19.54;100.00
54308;BME280;40208;39.778;2.710;2022-10-23T02:09:14;101360.47;;;19.68;100.00
54308;BME280;40208;39.778;2.710;2022-10-23T02:12:07;101361.09;;;19.72;100.00
54308;BME280;40208;39.778;2.710;2022-10-23T02:21:54;101348.53;;;20.07;100.00
54308;BME280;40208;39.778;2.710;2022-10-23T02:24:46;101357.41;;;20.67;100.00
54308;BME280;40208;39.778;2.710;2022-10-23T02:27:43;101357.44;;;21.12;97.90
54308;BME280;40208;39.778;2.710;2022-10-23T02:30:30;101327.97;;;21.43;86.03
54308;BME280;40208;39.778;2.710;2022-10-23T02:33:18;101337.19;;;21.73;89.68
54308;BME280;40208;39.778;2.710;2022-10-23T02:36:03;101342.47;;;22.07;80.79
54308;BME280;40208;39.778;2.710;2022-10-23T02:38:48;101347.13;;;22.37;79.56
54308;BME280;40208;39.778;2.710;2022-10-23T02:41:50;101338.31;;;22.65;79.28
54308;BME280;40208;39.778;2.710;2022-10-23T02:47:34;101327.47;;;23.17;64.37
54308;BME280;40208;39.778;2.710;2022-10-23T02:53:26;101336.13;;;23.61;66.42
54308;BME280;40208;39.778;2.710;2022-10-23T02:56:22;101325.69;;;23.47;69.25
54308;BME280;40208;39.778;2.710;2022-10-23T02:59:26;101317.84;;;23.44;68.25
54308;BME280;40208;39.778;2.710;2022-10-23T03:02:26;101313.97;;;23.37;68.04
54308;BME280;40208;39.778;2.710;2022-10-23T03:05:18;101321.38;;;23.35;67.19
54308;BME280;40208;39.778;2.710;2022-10-23T03:08:08;101316.38;;;23.30;67.34
54308;BME280;40208;39.778;2.710;2022-10-23T03:10:53;101286.13;;;23.15;67.25
54308;BME280;40208;39.778;2.710;2022-10-23T03:13:38;101283.59;;;23.23;67.33
54308;BME280;40208;39.778;2.710;2022-10-23T03:16:23;101307.00;;;23.44;64.89
54308;BME280;40208;39.778;2.710;2022-10-23T03:19:10;101304.88;;;23.47;65.79
54308;BME280;40208;39.778;2.710;2022-10-23T03:21:55;101293.88;;;23.39;64.46
54308;BME280;40208;39.778;2.710;2022-10-23T03:24:40;101308.72;;;23.45;64.92
54308;BME280;40208;39.778;2.710;2022-10-23T03:27:25;101266.78;;;23.29;61.53
54308;BME280;40208;39.778;2.710;2022-10-23T03:30:10;101255.94;;;23.29;62.00
54308;BME280;40208;39.778;2.710;2022-10-23T03:32:55;101296.34;;;23.71;62.86
54308;BME280;40208;39.778;2.710;2022-10-23T03:35:40;101314.19;;;23.84;58.92
54308;BME280;40208;39.778;2.710;2022-10-23T03:38:25;101310.06;;;23.89;58.21
54308;BME280;40208;39.778;2.710;2022-10-23T03:41:10;101324.59;;;24.18;57.17
54308;BME280;40208;39.778;2.710;2022-10-23T03:43:55;101315.88;;;24.24;56.83
54308;BME280;40208;39.778;2.710;2022-10-23T03:46:40;101311.88;;;24.28;59.32
54308;BME280;40208;39.778;2.710;2022-10-23T03:49:25;101300.47;;;24.15;54.92
54308;BME280;40208;39.778;2.710;2022-10-23T03:52:10;101319.88;;;24.20;59.89
54308;BME280;40208;39.778;2.710;2022-10-23T03:54:55;101293.91;;;24.07;56.98
54308;BME280;40208;39.778;2.710;2022-10-23T03:57:40;101334.72;;;24.25;59.66
54308;BME280;40208;39.778;2.710;2022-10-23T04:00:25;101293.94;;;23.98;57.08
54308;BME280;40208;39.778;2.710;2022-10-23T04:03:10;101333.59;;;24.18;55.87
54308;BME280;40208;39.778;2.710;2022-10-23T04:05:55;101339.28;;;24.15;57.31
54308;BME280;40208;39.778;2.710;2022-10-23T04:08:42;101338.56;;;24.13;58.92
54308;BME280;40208;39.778;2.710;2022-10-23T04:11:27;101344.16;;;24.11;60.56
54308;BME280;40208;39.778;2.710;2022-10-23T04:14:13;101356.16;;;24.09;61.26
54308;BME280;40208;39.778;2.710;2022-10-23T04:16:58;101346.72;;;24.03;58.85
54308;BME280;40208;39.778;2.710;2022-10-23T04:19:43;101342.88;;;23.96;61.26
54308;BME280;40208;39.778;2.710;2022-10-23T04:22:28;101349.84;;;23.89;57.99
54308;BME280;40208;39.778;2.710;2022-10-23T04:25:13;101356.00;;;23.91;55.47
54308;BME280;40208;39.778;2.710;2022-10-23T04:27:58;101348.44;;;24.04;56.06
54308;BME280;40208;39.778;2.710;2022-10-23T04:30:43;101353.56;;;24.07;54.89
54308;BME280;40208;39.778;2.710;2022-10-23T04:33:28;101350.56;;;24.20;51.91
54308;BME280;40208;39.778;2.710;2022-10-23T04:36:13;101347.72;;;24.22;57.63
54308;BME280;40208;39.778;2.710;2022-10-23T04:38:58;101355.88;;;24.12;59.37
54308;BME280;40208;39.778;2.710;2022-10-23T04:41:43;101334.91;;;23.95;57.39
54308;BME280;40208;39.778;2.710;2022-10-23T04:44:28;101322.19;;;23.76;55.14
54308;BME280;40208;39.778;2.710;2022-10-23T04:47:13;101350.03;;;23.97;58.39
54308;BME280;40208;39.778;2.710;2022-10-23T04:49:58;101344.88;;;23.94;57.53
54308;BME280;40208;39.778;2.710;2022-10-23T04:52:43;101338.16;;;23.88;52.70
54308;BME280;40208;39.778;2.710;2022-10-23T04:55:28;101339.72;;;23.91;57.68
54308;BME280;40208;39.778;2.710;2022-10-23T04:58:13;101336.88;;;24.02;53.58
54308;BME280;40208;39.778;2.710;2022-10-23T05:00:57;101337.31;;;24.07;54.77
54308;BME280;40208;39.778;2.710;2022-10-23T05:03:42;101251.97;;;23.53;55.61
54308;BME280;40208;39.778;2.710;2022-10-23T05:06:27;101345.56;;;24.06;54.65
54308;BME280;40208;39.778;2.710;2022-10-23T05:09:12;101332.59;;;24.09;51.94
54308;BME280;40208;39.778;2.710;2022-10-23T05:11:57;101317.91;;;24.02;54.57
54308;BME280;40208;39.778;2.710;2022-10-23T05:14:42;101340.16;;;24.16;53.86
54308;BME280;40208;39.778;2.710;2022-10-23T05:17:33;101340.31;;;24.14;53.65
54308;BME280;40208;39.778;2.710;2022-10-23T05:20:22;101336.56;;;24.25;52.43
54308;BME280;40208;39.778;2.710;2022-10-23T05:23:10;101333.31;;;24.21;53.18
54308;BME280;40208;39.778;2.710;2022-10-23T05:25:56;101331.84;;;24.27;53.16
54308;BME280;40208;39.778;2.710;2022-10-23T05:28:41;101331.44;;;24.22;53.42
54308;BME280;40208;39.778;2.710;2022-10-23T05:31:26;101226.59;;;23.64;51.58
54308;BME280;40208;39.778;2.710;2022-10-23T05:34:13;101331.00;;;24.36;52.98
54308;BME280;40208;39.778;2.710;2022-10-23T05:37:00;101338.69;;;24.41;52.35
54308;BME280;40208;39.778;2.710;2022-10-23T05:39:45;101337.13;;;24.38;53.63
54308;BME280;40208;39.778;2.710;2022-10-23T05:42:30;101299.31;;;24.17;54.39
54308;BME280;40208;39.778;2.710;2022-10-23T05:45:15;101330.28;;;24.34;53.01
54308;BME280;40208;39.778;2.710;2022-10-23T05:48:00;101326.69;;;24.43;53.35
54308;BME280;40208;39.778;2.710;2022-10-23T05:50:45;101341.81;;;24.55;51.61
54308;BME280;40208;39.778;2.710;2022-10-23T05:53:30;101337.81;;;24.60;52.85
54308;BME280;40208;39.778;2.710;2022-10-23T05:56:15;101326.94;;;24.69;54.56
54308;BME280;40208;39.778;2.710;2022-10-23T05:59:00;101330.09;;;24.65;53.35
54308;BME280;40208;39.778;2.710;2022-10-23T06:01:45;101334.13;;;24.61;54.51
54308;BME280;40208;39.778;2.710;2022-10-23T06:04:30;101339.56;;;24.61;55.53
54308;BME280;40208;39.778;2.710;2022-10-23T06:07:15;101320.13;;;24.55;53.59
54308;BME280;40208;39.778;2.710;2022-10-23T06:10:00;101311.81;;;24.67;54.30
54308;BME280;40208;39.778;2.710;2022-10-23T06:12:46;101333.78;;;24.73;54.21
54308;BME280;40208;39.778;2.710;2022-10-23T06:15:31;101342.78;;;24.74;55.11
54308;BME280;40208;39.778;2.710;2022-10-23T06:18:17;101349.22;;;24.73;54.29
54308;BME280;40208;39.778;2.710;2022-10-23T06:21:02;101221.28;;;24.01;54.13
54308;BME280;40208;39.778;2.710;2022-10-23T06:23:47;101334.38;;;24.67;55.58
54308;BME280;40208;39.778;2.710;2022-10-23T06:26:32;101348.09;;;24.66;55.98
54308;BME280;40208;39.778;2.710;2022-10-23T06:29:17;101366.94;;;24.67;56.79
54308;BME280;40208;39.778;2.710;2022-10-23T06:32:02;101386.09;;;24.66;55.90
54308;BME280;40208;39.778;2.710;2022-10-23T06:34:47;101391.81;;;24.63;54.46
54308;BME280;40208;39.778;2.710;2022-10-23T06:37:33;101412.38;;;24.65;55.99
54308;BME280;40208;39.778;2.710;2022-10-23T06:40:17;101416.09;;;24.64;53.91
54308;BME280;40208;39.778;2.710;2022-10-23T06:43:03;101417.97;;;24.64;56.83
54308;BME280;40208;39.778;2.710;2022-10-23T06:45:48;101425.81;;;24.57;57.35
54308;BME280;40208;39.778;2.710;2022-10-23T06:48:33;101432.81;;;24.60;56.35
54308;BME280;40208;39.778;2.710;2022-10-23T06:51:18;101430.94;;;24.60;58.23
54308;BME280;40208;39.778;2.710;2022-10-23T06:54:03;101417.97;;;24.54;59.38
54308;BME280;40208;39.778;2.710;2022-10-23T06:56:48;101417.97;;;24.34;61.25
54308;BME280;40208;39.778;2.710;2022-10-23T06:59:33;101441.50;;;24.34;65.29
54308;BME280;40208;39.778;2.710;2022-10-23T07:02:18;101440.38;;;24.27;68.21
54308;BME280;40208;39.778;2.710;2022-10-23T07:05:04;101440.94;;;24.21;73.25
54308;BME280;40208;39.778;2.710;2022-10-23T07:07:49;101389.38;;;24.01;71.81
54308;BME280;40208;39.778;2.710;2022-10-23T07:10:35;101432.81;;;24.30;66.57
54308;BME280;40208;39.778;2.710;2022-10-23T07:13:20;101434.66;;;24.40;64.18
54308;BME280;40208;39.778;2.710;2022-10-23T07:16:14;101435.38;;;24.42;62.71
54308;BME280;40208;39.778;2.710;2022-10-23T07:19:00;101408.66;;;24.18;64.40
54308;BME280;40208;39.778;2.710;2022-10-23T07:21:45;101448.38;;;24.38;75.29
54308;BME280;40208;39.778;2.710;2022-10-23T07:24:31;101440.09;;;24.30;73.33
54308;BME280;40208;39.778;2.710;2022-10-23T07:27:20;101448.50;;;24.37;69.91
54308;BME280;40208;39.778;2.710;2022-10-23T07:30:06;101458.66;;;24.44;76.61
54308;BME280;40208;39.778;2.710;2022-10-23T07:32:51;101453.81;;;24.48;80.26
54308;BME280;40208;39.778;2.710;2022-10-23T07:35:38;101455.69;;;24.47;78.59
54308;BME280;40208;39.778;2.710;2022-10-23T07:38:23;101441.38;;;24.45;72.83
54308;BME280;40208;39.778;2.710;2022-10-23T07:41:09;101465.09;;;24.53;71.34
54308;BME280;40208;39.778;2.710;2022-10-23T07:43:54;101455.53;;;24.59;68.72
54308;BME280;40208;39.778;2.710;2022-10-23T07:46:39;101426.13;;;24.54;68.50
54308;BME280;40208;39.778;2.710;2022-10-23T07:49:24;101435.50;;;24.69;66.47
54308;BME280;40208;39.778;2.710;2022-10-23T07:52:10;101443.53;;;24.71;65.46
54308;BME280;40208;39.778;2.710;2022-10-23T07:54:54;101457.63;;;24.84;62.10
54308;BME280;40208;39.778;2.710;2022-10-23T07:57:39;101457.47;;;24.95;63.29
54308;BME280;40208;39.778;2.710;2022-10-23T08:00:25;101465.84;;;25.12;61.19
54308;BME280;40208;39.778;2.710;2022-10-23T08:03:10;101466.88;;;25.21;60.13
54308;BME280;40208;39.778;2.710;2022-10-23T08:05:56;101464.44;;;25.17;60.68
54308;BME280;40208;39.778;2.710;2022-10-23T08:08:41;101462.56;;;25.28;60.42
54308;BME280;40208;39.778;2.710;2022-10-23T08:11:26;101473.66;;;25.44;59.18
54308;BME280;40208;39.778;2.710;2022-10-23T08:14:14;101447.91;;;25.38;60.39
54308;BME280;40208;39.778;2.710;2022-10-23T08:16:59;101454.72;;;25.52;58.79
54308;BME280;40208;39.778;2.710;2022-10-23T08:19:44;101433.88;;;25.43;59.24
54308;BME280;40208;39.778;2.710;2022-10-23T08:22:30;101469.34;;;25.51;58.84
54308;BME280;40208;39.778;2.710;2022-10-23T08:25:15;101477.84;;;25.66;58.06
54308;BME280;40208;39.778;2.710;2022-10-23T08:28:00;101471.53;;;25.66;58.19
54308;BME280;40208;39.778;2.710;2022-10-23T08:30:45;101459.97;;;25.64;57.85
54308;BME280;40208;39.778;2.710;2022-10-23T08:33:30;101472.28;;;25.86;58.14
54308;BME280;40208;39.778;2.710;2022-10-23T08:36:24;101484.94;;;26.05;57.03
54308;BME280;40208;39.778;2.710;2022-10-23T08:39:09;101445.09;;;25.86;56.95
54308;BME280;40208;39.778;2.710;2022-10-23T08:41:54;101473.00;;;26.15;57.11
54308;BME280;40208;39.778;2.710;2022-10-23T08:45:06;101494.75;;;26.33;57.24
54308;BME280;40208;39.778;2.710;2022-10-23T08:47:53;101453.03;;;26.25;55.35
54308;BME280;40208;39.778;2.710;2022-10-23T08:50:42;101493.22;;;26.67;56.15
54308;BME280;40208;39.778;2.710;2022-10-23T08:53:42;101493.31;;;26.75;55.62
54308;BME280;40208;39.778;2.710;2022-10-23T08:56:39;101509.00;;;26.81;56.17
54308;BME280;40208;39.778;2.710;2022-10-23T08:59:37;101493.13;;;26.76;55.45
54308;BME280;40208;39.778;2.710;2022-10-23T09:05:34;101492.00;;;26.61;57.10
54308;BME280;40208;39.778;2.710;2022-10-23T09:12:04;101499.28;;;27.22;53.39
54308;BME280;40208;39.778;2.710;2022-10-23T09:14:55;101488.75;;;27.62;53.10
54308;BME280;40208;39.778;2.710;2022-10-23T09:17:43;101461.66;;;27.60;53.95
54308;BME280;40208;39.778;2.710;2022-10-23T09:20:32;101480.97;;;27.75;54.12
54308;BME280;40208;39.778;2.710;2022-10-23T09:23:23;101491.03;;;27.75;54.66
54308;BME280;40208;39.778;2.710;2022-10-23T09:26:14;101481.25;;;27.64;53.56
54308;BME280;40208;39.778;2.710;2022-10-23T09:29:21;101489.38;;;27.47;55.62
54308;BME280;40208;39.778;2.710;2022-10-23T09:32:07;101498.41;;;27.48;55.27
54308;BME280;40208;39.778;2.710;2022-10-23T09:34:54;101498.81;;;27.61;54.14
54308;BME280;40208;39.778;2.710;2022-10-23T09:37:45;101496.03;;;27.87;53.69
54308;BME280;40208;39.778;2.710;2022-10-23T09:40:41;101502.81;;;28.34;52.03
54308;BME280;40208;39.778;2.710;2022-10-23T09:43:26;101477.78;;;28.55;51.58
54308;BME280;40208;39.778;2.710;2022-10-23T09:46:12;101509.19;;;29.08;49.39
54308;BME280;40208;39.778;2.710;2022-10-23T09:48:57;101517.50;;;29.48;49.52
54308;BME280;40208;39.778;2.710;2022-10-23T09:54:54;101515.75;;;30.02;45.90
54308;BME280;40208;39.778;2.710;2022-10-23T09:57:42;101526.47;;;30.12;47.26
54308;BME280;40208;39.778;2.710;2022-10-23T10:00:28;101530.59;;;30.08;46.42
54308;BME280;40208;39.778;2.710;2022-10-23T10:03:19;101521.63;;;29.91;48.72
54308;BME280;40208;39.778;2.710;2022-10-23T10:06:05;101507.63;;;29.78;49.04
54308;BME280;40208;39.778;2.710;2022-10-23T10:08:52;101528.63;;;29.94;49.68
54308;BME280;40208;39.778;2.710;2022-10-23T10:20:36;101532.25;;;29.86;48.96
54308;BME280;40208;39.778;2.710;2022-10-23T10:23:36;101509.13;;;29.89;50.06
54308;BME280;40208;39.778;2.710;2022-10-23T10:26:46;101523.34;;;30.15;50.73
54308;BME280;40208;39.778;2.710;2022-10-23T10:33:00;101527.59;;;31.18;47.72
54308;BME280;40208;39.778;2.710;2022-10-23T10:39:00;101515.63;;;31.49;45.65
54308;BME280;40208;39.778;2.710;2022-10-23T10:48:28;101521.59;;;32.19;44.05
54308;BME280;40208;39.778;2.710;2022-10-23T10:54:20;101507.91;;;32.62;41.90
54308;BME280;40208;39.778;2.710;2022-10-23T10:57:15;101511.97;;;32.66;43.18
54308;BME280;40208;39.778;2.710;2022-10-23T11:00:17;101494.06;;;32.77;41.83
54308;BME280;40208;39.778;2.710;2022-10-23T11:03:44;101495.84;;;32.84;43.54
54308;BME280;40208;39.778;2.710;2022-10-23T11:06:33;101492.16;;;32.34;44.31
54308;BME280;40208;39.778;2.710;2022-10-23T11:09:28;101477.47;;;32.42;42.49
54308;BME280;40208;39.778;2.710;2022-10-23T11:12:19;101484.84;;;32.41;44.00
54308;BME280;40208;39.778;2.710;2022-10-23T11:15:17;101465.25;;;32.23;45.08
54308;BME280;40208;39.778;2.710;2022-10-23T11:18:12;101468.69;;;32.10;44.97
54308;BME280;40208;39.778;2.710;2022-10-23T11:36:19;101477.84;;;32.39;45.17
54308;BME280;40208;39.778;2.710;2022-10-23T11:44:50;101463.75;;;32.91;42.06
54308;BME280;40208;39.778;2.710;2022-10-23T11:47:38;101468.03;;;33.01;42.31
54308;BME280;40208;39.778;2.710;2022-10-23T11:50:49;101464.28;;;33.36;42.62
54308;BME280;40208;39.778;2.710;2022-10-23T11:59:30;101440.16;;;33.87;40.19
54308;BME280;40208;39.778;2.710;2022-10-23T12:05:32;101428.34;;;34.06;38.13
54308;BME280;40208;39.778;2.710;2022-10-23T12:08:27;101427.28;;;34.00;39.20
54308;BME280;40208;39.778;2.710;2022-10-23T12:11:38;101425.56;;;33.99;38.45
54308;BME280;40208;39.778;2.710;2022-10-23T12:14:28;101398.22;;;33.85;39.41
54308;BME280;40208;39.778;2.710;2022-10-23T12:23:16;101398.06;;;34.26;36.95
54308;BME280;40208;39.778;2.710;2022-10-23T12:26:22;101404.03;;;34.30;36.14
54308;BME280;40208;39.778;2.710;2022-10-23T12:29:27;101362.03;;;34.08;37.10
54308;BME280;40208;39.778;2.710;2022-10-23T12:32:31;101406.78;;;34.36;35.32
54308;BME280;40208;39.778;2.710;2022-10-23T12:38:32;101401.06;;;34.25;39.66
54308;BME280;40208;39.778;2.710;2022-10-23T12:41:22;101405.91;;;34.16;40.98
54308;BME280;40208;39.778;2.710;2022-10-23T12:44:11;101341.41;;;33.70;42.15
54308;BME280;40208;39.778;2.710;2022-10-23T12:46:57;101403.09;;;33.89;44.89
54308;BME280;40208;39.778;2.710;2022-10-23T12:49:49;101396.25;;;33.65;45.88
54308;BME280;40208;39.778;2.710;2022-10-23T12:52:35;101399.41;;;33.62;47.23
54308;BME280;40208;39.778;2.710;2022-10-23T12:55:24;101386.34;;;33.29;46.62
54308;BME280;40208;39.778;2.710;2022-10-23T12:58:27;101389.75;;;33.38;46.79
54308;BME280;40208;39.778;2.710;2022-10-23T13:01:23;101385.34;;;33.44;43.76
54308;BME280;40208;39.778;2.710;2022-10-23T13:04:30;101365.25;;;33.50;44.49
54308;BME280;40208;39.778;2.710;2022-10-23T13:07:18;101358.09;;;33.55;44.26
54308;BME280;40208;39.778;2.710;2022-10-23T13:10:05;101359.38;;;33.60;44.51
54308;BME280;40208;39.778;2.710;2022-10-23T13:13:05;101353.25;;;33.64;44.64
54308;BME280;40208;39.778;2.710;2022-10-23T13:15:50;101340.69;;;33.55;43.32
54308;BME280;40208;39.778;2.710;2022-10-23T13:18:39;101341.75;;;33.54;45.33
54308;BME280;40208;39.778;2.710;2022-10-23T13:21:26;101331.78;;;33.53;44.65
54308;BME280;40208;39.778;2.710;2022-10-23T13:24:19;101327.75;;;33.42;43.80
54308;BME280;40208;39.778;2.710;2022-10-23T13:27:24;101327.31;;;33.32;44.40
54308;BME280;40208;39.778;2.710;2022-10-23T13:30:30;101326.06;;;33.34;44.42
54308;BME280;40208;39.778;2.710;2022-10-23T13:33:22;101321.16;;;33.30;45.15
54308;BME280;40208;39.778;2.710;2022-10-23T13:39:11;101316.75;;;33.01;45.19
54308;BME280;40208;39.778;2.710;2022-10-23T13:42:00;101292.97;;;32.73;45.25
54308;BME280;40208;39.778;2.710;2022-10-23T13:44:53;101218.69;;;32.31;44.55
54308;BME280;40208;39.778;2.710;2022-10-23T13:47:38;101308.88;;;32.84;45.22
54308;BME280;40208;39.778;2.710;2022-10-23T13:50:23;101297.56;;;32.66;45.96
54308;BME280;40208;39.778;2.710;2022-10-23T13:53:11;101291.06;;;32.45;45.97
54308;BME280;40208;39.778;2.710;2022-10-23T13:55:56;101261.03;;;32.09;46.42
54308;BME280;40208;39.778;2.710;2022-10-23T13:58:41;101304.63;;;32.19;47.68
54308;BME280;40208;39.778;2.710;2022-10-23T14:01:29;101297.38;;;32.11;47.24
54308;BME280;40208;39.778;2.710;2022-10-23T14:04:15;101297.81;;;32.15;48.10
54308;BME280;40208;39.778;2.710;2022-10-23T14:07:00;101296.78;;;32.16;46.73
54308;BME280;40208;39.778;2.710;2022-10-23T14:09:46;101286.44;;;31.96;47.17
54308;BME280;40208;39.778;2.710;2022-10-23T14:12:38;101283.00;;;31.87;46.81
54308;BME280;40208;39.778;2.710;2022-10-23T14:15:22;101284.91;;;31.87;46.89
54308;BME280;40208;39.778;2.710;2022-10-23T14:18:08;101286.44;;;31.75;47.84
54308;BME280;40208;39.778;2.710;2022-10-23T14:20:52;101167.78;;;30.87;47.92
54308;BME280;40208;39.778;2.710;2022-10-23T14:23:38;101284.88;;;31.44;49.33
54308;BME280;40208;39.778;2.710;2022-10-23T14:26:25;101288.78;;;31.35;49.81
54308;BME280;40208;39.778;2.710;2022-10-23T14:29:11;101119.88;;;30.16;50.45
54308;BME280;40208;39.778;2.710;2022-10-23T14:31:56;101164.09;;;30.28;50.11
54308;BME280;40208;39.778;2.710;2022-10-23T14:34:42;101278.63;;;30.99;51.60
54308;BME280;40208;39.778;2.710;2022-10-23T14:37:30;101169.50;;;30.13;51.79
54308;BME280;40208;39.778;2.710;2022-10-23T14:40:15;101173.44;;;29.81;52.49
54308;BME280;40208;39.778;2.710;2022-10-23T14:43:00;101275.13;;;30.31;53.39
54308;BME280;40208;39.778;2.710;2022-10-23T14:45:45;101264.78;;;30.18;54.27
54308;BME280;40208;39.778;2.710;2022-10-23T14:48:30;101204.72;;;29.41;54.93
54308;BME280;40208;39.778;2.710;2022-10-23T14:51:23;101278.00;;;29.76;56.06
54308;BME280;40208;39.778;2.710;2022-10-23T14:54:09;101284.44;;;29.84;56.27
54308;BME280;40208;39.778;2.710;2022-10-23T14:56:53;101286.44;;;29.67;57.64
54308;BME280;40208;39.778;2.710;2022-10-23T14:59:38;101272.84;;;29.50;57.88
54308;BME280;40208;39.778;2.710;2022-10-23T15:02:23;101220.81;;;29.12;59.32
54308;BME280;40208;39.778;2.710;2022-10-23T15:05:08;101261.34;;;29.32;60.55
54308;BME280;40208;39.778;2.710;2022-10-23T15:07:54;101271.47;;;29.23;61.79
54308;BME280;40208;39.778;2.710;2022-10-23T15:10:39;101247.97;;;29.06;59.10
54308;BME280;40208;39.778;2.710;2022-10-23T15:13:24;101255.16;;;29.07;62.62
54308;BME280;40208;39.778;2.710;2022-10-23T15:16:10;101263.53;;;29.05;59.23
54308;BME280;40208;39.778;2.710;2022-10-23T15:18:55;101123.88;;;28.29;60.65
54308;BME280;40208;39.778;2.710;2022-10-23T15:21:40;101238.16;;;28.88;59.29
54308;BME280;40208;39.778;2.710;2022-10-23T15:24:25;101206.53;;;28.54;58.91
54308;BME280;40208;39.778;2.710;2022-10-23T15:27:10;101248.47;;;28.70;60.04
54308;BME280;40208;39.778;2.710;2022-10-23T15:29:55;101252.28;;;28.61;62.28
54308;BME280;40208;39.778;2.710;2022-10-23T15:32:39;101140.38;;;27.72;62.95
54308;BME280;40208;39.778;2.710;2022-10-23T15:35:24;101262.22;;;28.37;64.74
54308;BME280;40208;39.778;2.710;2022-10-23T15:38:09;101262.03;;;28.39;64.60
54308;BME280;40208;39.778;2.710;2022-10-23T15:40:59;101278.78;;;28.27;64.52
54308;BME280;40208;39.778;2.710;2022-10-23T15:43:57;101262.25;;;27.88;69.64
54308;BME280;40208;39.778;2.710;2022-10-23T15:46:42;101291.06;;;28.07;70.99
54308;BME280;40208;39.778;2.710;2022-10-23T15:49:28;101235.13;;;27.54;74.90
54308;BME280;40208;39.778;2.710;2022-10-23T15:52:13;101293.09;;;27.56;77.33
54308;BME280;40208;39.778;2.710;2022-10-23T15:54:57;101308.63;;;27.72;81.29
54308;BME280;40208;39.778;2.710;2022-10-23T15:57:42;101329.38;;;27.56;83.58
54308;BME280;40208;39.778;2.710;2022-10-23T16:00:27;101306.84;;;27.38;86.33
54308;BME280;40208;39.778;2.710;2022-10-23T16:03:12;101320.03;;;27.16;88.96
54308;BME280;40208;39.778;2.710;2022-10-23T16:05:56;101286.28;;;27.01;89.29
54308;BME280;40208;39.778;2.710;2022-10-23T16:08:41;101281.59;;;26.85;91.14
54308;BME280;40208;39.778;2.710;2022-10-23T16:11:29;101299.84;;;26.93;92.91
54308;BME280;40208;39.778;2.710;2022-10-23T16:14:15;101306.25;;;26.83;93.85
54308;BME280;40208;39.778;2.710;2022-10-23T16:17:00;101292.91;;;26.64;94.03